sensor_id;sensor_type;location;lat;lon;timestamp;P1;durP1;ratioP1;P2;durP2;ratioP2
37131;SDS011;23035;50.032;21.978;2022-09-01T00:01:34;9.65;;;3.13;;
37131;SDS011;23035;50.032;21.978;2022-09-01T00:06:40;7.85;;;3.47;;
37131;SDS011;23035;50.032;21.978;2022-09-01T00:11:48;8.35;;;3.38;;
37131;SDS011;23035;50.032;21.978;2022-09-01T00:16:54;8.38;;;3.47;;
37131;SDS011;23035;50.032;21.978;2022-09-01T00:21:58;6.85;;;3.50;;
37131;SDS011;23035;50.032;21.978;2022-09-01T00:27:04;5.93;;;3.85;;
37131;SDS011;23035;50.032;21.978;2022-09-01T00:32:08;8.57;;;3.38;;
37131;SDS011;23035;50.032;21.978;2022-09-01T00:37:12;5.28;;;3.22;;
37131;SDS011;23035;50.032;21.978;2022-09-01T00:42:17;7.85;;;3.53;;
37131;SDS011;23035;50.032;21.978;2022-09-01T00:47:21;7.30;;;3.60;;
37131;SDS011;23035;50.032;21.978;2022-09-01T00:52:27;8.75;;;3.08;;
37131;SDS011;23035;50.032;21.978;2022-09-01T00:57:35;9.80;;;3.75;;
37131;SDS011;23035;50.032;21.978;2022-09-01T01:02:40;9.43;;;3.50;;
37131;SDS011;23035;50.032;21.978;2022-09-01T01:07:46;11.90;;;3.70;;
37131;SDS011;23035;50.032;21.978;2022-09-01T01:12:52;6.97;;;3.72;;
37131;SDS011;23035;50.032;21.978;2022-09-01T01:23:02;7.45;;;3.88;;
37131;SDS011;23035;50.032;21.978;2022-09-01T01:28:16;6.85;;;3.60;;
37131;SDS011;23035;50.032;21.978;2022-09-01T01:33:30;10.07;;;3.40;;
37131;SDS011;23035;50.032;21.978;2022-09-01T01:38:36;11.13;;;3.75;;
37131;SDS011;23035;50.032;21.978;2022-09-01T01:43:41;8.85;;;4.72;;
37131;SDS011;23035;50.032;21.978;2022-09-01T01:48:45;8.50;;;3.63;;
37131;SDS011;23035;50.032;21.978;2022-09-01T01:53:50;6.70;;;3.77;;
37131;SDS011;23035;50.032;21.978;2022-09-01T01:58:56;8.07;;;3.72;;
37131;SDS011;23035;50.032;21.978;2022-09-01T02:09:06;6.20;;;3.70;;
37131;SDS011;23035;50.032;21.978;2022-09-01T02:14:11;8.13;;;3.67;;
37131;SDS011;23035;50.032;21.978;2022-09-01T02:19:17;6.93;;;3.75;;
37131;SDS011;23035;50.032;21.978;2022-09-01T02:24:22;8.53;;;3.33;;
37131;SDS011;23035;50.032;21.978;2022-09-01T02:29:28;11.07;;;4.10;;
37131;SDS011;23035;50.032;21.978;2022-09-01T02:34:44;9.27;;;3.67;;
37131;SDS011;23035;50.032;21.978;2022-09-01T02:39:55;8.15;;;3.78;;
37131;SDS011;23035;50.032;21.978;2022-09-01T02:45:02;7.68;;;3.97;;
37131;SDS011;23035;50.032;21.978;2022-09-01T02:50:14;7.07;;;3.58;;
37131;SDS011;23035;50.032;21.978;2022-09-01T02:55:20;17.58;;;4.05;;
37131;SDS011;23035;50.032;21.978;2022-09-01T03:00:25;8.98;;;3.90;;
37131;SDS011;23035;50.032;21.978;2022-09-01T03:05:33;6.03;;;3.50;;
37131;SDS011;23035;50.032;21.978;2022-09-01T03:10:41;9.00;;;3.95;;
37131;SDS011;23035;50.032;21.978;2022-09-01T03:15:49;8.40;;;3.85;;
37131;SDS011;23035;50.032;21.978;2022-09-01T03:20:53;8.45;;;3.67;;
37131;SDS011;23035;50.032;21.978;2022-09-01T03:25:57;6.10;;;3.30;;
37131;SDS011;23035;50.032;21.978;2022-09-01T03:31:03;8.90;;;3.80;;
37131;SDS011;23035;50.032;21.978;2022-09-01T03:36:08;11.45;;;3.60;;
37131;SDS011;23035;50.032;21.978;2022-09-01T03:41:22;6.97;;;3.70;;
37131;SDS011;23035;50.032;21.978;2022-09-01T03:46:30;9.90;;;4.18;;
37131;SDS011;23035;50.032;21.978;2022-09-01T03:51:39;9.82;;;3.72;;
37131;SDS011;23035;50.032;21.978;2022-09-01T03:56:43;9.55;;;4.35;;
37131;SDS011;23035;50.032;21.978;2022-09-01T04:01:53;11.35;;;4.25;;
37131;SDS011;23035;50.032;21.978;2022-09-01T04:06:58;6.60;;;3.47;;
37131;SDS011;23035;50.032;21.978;2022-09-01T04:12:04;12.45;;;4.63;;
37131;SDS011;23035;50.032;21.978;2022-09-01T04:17:12;6.28;;;3.90;;
37131;SDS011;23035;50.032;21.978;2022-09-01T04:22:45;7.93;;;4.10;;
37131;SDS011;23035;50.032;21.978;2022-09-01T04:27:51;11.77;;;4.22;;
37131;SDS011;23035;50.032;21.978;2022-09-01T04:32:59;7.55;;;3.50;;
37131;SDS011;23035;50.032;21.978;2022-09-01T04:43:09;7.90;;;3.17;;
37131;SDS011;23035;50.032;21.978;2022-09-01T04:48:14;9.45;;;4.22;;
37131;SDS011;23035;50.032;21.978;2022-09-01T04:53:29;16.02;;;4.10;;
37131;SDS011;23035;50.032;21.978;2022-09-01T04:58:40;7.57;;;3.75;;
37131;SDS011;23035;50.032;21.978;2022-09-01T05:04:09;9.38;;;3.72;;
37131;SDS011;23035;50.032;21.978;2022-09-01T05:09:15;8.82;;;4.13;;
37131;SDS011;23035;50.032;21.978;2022-09-01T05:14:35;8.48;;;4.10;;
37131;SDS011;23035;50.032;21.978;2022-09-01T05:19:41;11.23;;;4.15;;
37131;SDS011;23035;50.032;21.978;2022-09-01T05:24:49;11.35;;;3.85;;
37131;SDS011;23035;50.032;21.978;2022-09-01T05:29:57;8.90;;;3.45;;
37131;SDS011;23035;50.032;21.978;2022-09-01T05:35:03;7.23;;;3.37;;
37131;SDS011;23035;50.032;21.978;2022-09-01T05:40:09;11.73;;;3.47;;
37131;SDS011;23035;50.032;21.978;2022-09-01T05:45:19;10.38;;;3.45;;
37131;SDS011;23035;50.032;21.978;2022-09-01T05:50:26;7.50;;;3.88;;
37131;SDS011;23035;50.032;21.978;2022-09-01T05:55:30;11.67;;;3.73;;
37131;SDS011;23035;50.032;21.978;2022-09-01T06:00:39;4.55;;;3.40;;
37131;SDS011;23035;50.032;21.978;2022-09-01T06:05:45;13.90;;;3.97;;
37131;SDS011;23035;50.032;21.978;2022-09-01T06:10:53;6.15;;;3.60;;
37131;SDS011;23035;50.032;21.978;2022-09-01T06:15:57;10.85;;;4.32;;
37131;SDS011;23035;50.032;21.978;2022-09-01T06:21:05;9.85;;;4.20;;
37131;SDS011;23035;50.032;21.978;2022-09-01T06:26:15;12.25;;;4.15;;
37131;SDS011;23035;50.032;21.978;2022-09-01T06:31:22;7.38;;;4.05;;
37131;SDS011;23035;50.032;21.978;2022-09-01T06:36:29;7.67;;;4.10;;
37131;SDS011;23035;50.032;21.978;2022-09-01T06:41:38;7.30;;;4.25;;
37131;SDS011;23035;50.032;21.978;2022-09-01T06:46:46;7.82;;;4.10;;
37131;SDS011;23035;50.032;21.978;2022-09-01T06:51:55;11.00;;;3.75;;
37131;SDS011;23035;50.032;21.978;2022-09-01T06:57:03;11.75;;;4.15;;
37131;SDS011;23035;50.032;21.978;2022-09-01T07:02:31;5.63;;;3.28;;
37131;SDS011;23035;50.032;21.978;2022-09-01T07:08:17;7.15;;;3.50;;
37131;SDS011;23035;50.032;21.978;2022-09-01T07:13:38;6.45;;;3.17;;
37131;SDS011;23035;50.032;21.978;2022-09-01T07:19:04;10.43;;;3.55;;
37131;SDS011;23035;50.032;21.978;2022-09-01T07:24:28;9.48;;;3.10;;
37131;SDS011;23035;50.032;21.978;2022-09-01T07:30:06;11.73;;;4.50;;
37131;SDS011;23035;50.032;21.978;2022-09-01T07:35:15;8.13;;;2.72;;
37131;SDS011;23035;50.032;21.978;2022-09-01T07:40:25;6.85;;;3.90;;
37131;SDS011;23035;50.032;21.978;2022-09-01T07:46:20;7.38;;;3.47;;
37131;SDS011;23035;50.032;21.978;2022-09-01T07:51:44;7.72;;;3.38;;
37131;SDS011;23035;50.032;21.978;2022-09-01T07:56:55;8.50;;;3.50;;
37131;SDS011;23035;50.032;21.978;2022-09-01T08:01:59;9.55;;;3.60;;
37131;SDS011;23035;50.032;21.978;2022-09-01T08:07:08;6.53;;;3.20;;
37131;SDS011;23035;50.032;21.978;2022-09-01T08:12:18;5.85;;;2.72;;
37131;SDS011;23035;50.032;21.978;2022-09-01T08:17:30;4.78;;;2.67;;
37131;SDS011;23035;50.032;21.978;2022-09-01T08:22:52;7.28;;;3.33;;
37131;SDS011;23035;50.032;21.978;2022-09-01T08:28:00;8.73;;;2.65;;
37131;SDS011;23035;50.032;21.978;2022-09-01T08:33:04;4.97;;;2.90;;
37131;SDS011;23035;50.032;21.978;2022-09-01T08:38:16;13.23;;;2.97;;
37131;SDS011;23035;50.032;21.978;2022-09-01T08:43:24;10.80;;;3.65;;
37131;SDS011;23035;50.032;21.978;2022-09-01T08:48:36;8.70;;;2.78;;
37131;SDS011;23035;50.032;21.978;2022-09-01T08:54:09;2.75;;;2.38;;
37131;SDS011;23035;50.032;21.978;2022-09-01T08:59:34;4.75;;;2.35;;
37131;SDS011;23035;50.032;21.978;2022-09-01T09:04:57;4.53;;;2.00;;
37131;SDS011;23035;50.032;21.978;2022-09-01T09:10:17;2.85;;;2.22;;
37131;SDS011;23035;50.032;21.978;2022-09-01T09:15:26;2.47;;;2.05;;
37131;SDS011;23035;50.032;21.978;2022-09-01T09:20:42;3.90;;;2.00;;
37131;SDS011;23035;50.032;21.978;2022-09-01T09:25:47;4.82;;;2.42;;
37131;SDS011;23035;50.032;21.978;2022-09-01T09:36:32;3.33;;;2.08;;
37131;SDS011;23035;50.032;21.978;2022-09-01T09:41:38;4.85;;;1.95;;
37131;SDS011;23035;50.032;21.978;2022-09-01T09:46:45;4.53;;;1.63;;
37131;SDS011;23035;50.032;21.978;2022-09-01T09:51:51;6.18;;;2.20;;
37131;SDS011;23035;50.032;21.978;2022-09-01T09:57:03;2.38;;;1.77;;
37131;SDS011;23035;50.032;21.978;2022-09-01T10:02:16;3.92;;;1.83;;
37131;SDS011;23035;50.032;21.978;2022-09-01T10:07:34;2.80;;;1.70;;
37131;SDS011;23035;50.032;21.978;2022-09-01T10:17:45;4.15;;;2.90;;
37131;SDS011;23035;50.032;21.978;2022-09-01T10:22:50;3.25;;;1.90;;
37131;SDS011;23035;50.032;21.978;2022-09-01T10:27:56;1.85;;;1.42;;
37131;SDS011;23035;50.032;21.978;2022-09-01T10:33:09;2.50;;;1.27;;
37131;SDS011;23035;50.032;21.978;2022-09-01T10:38:23;6.72;;;1.60;;
37131;SDS011;23035;50.032;21.978;2022-09-01T10:43:36;5.07;;;1.60;;
37131;SDS011;23035;50.032;21.978;2022-09-01T10:49:12;1.40;;;1.23;;
37131;SDS011;23035;50.032;21.978;2022-09-01T10:54:51;1.75;;;1.17;;
37131;SDS011;23035;50.032;21.978;2022-09-01T11:00:14;3.08;;;1.85;;
37131;SDS011;23035;50.032;21.978;2022-09-01T11:06:31;4.57;;;3.50;;
37131;SDS011;23035;50.032;21.978;2022-09-01T11:12:30;2.97;;;1.58;;
37131;SDS011;23035;50.032;21.978;2022-09-01T11:17:55;2.13;;;1.80;;
37131;SDS011;23035;50.032;21.978;2022-09-01T11:23:18;3.72;;;2.20;;
37131;SDS011;23035;50.032;21.978;2022-09-01T11:33:49;3.45;;;1.90;;
37131;SDS011;23035;50.032;21.978;2022-09-01T11:45:04;5.60;;;1.85;;
37131;SDS011;23035;50.032;21.978;2022-09-01T11:50:24;2.38;;;1.80;;
37131;SDS011;23035;50.032;21.978;2022-09-01T11:55:33;3.55;;;1.67;;
37131;SDS011;23035;50.032;21.978;2022-09-01T12:00:40;3.90;;;1.70;;
37131;SDS011;23035;50.032;21.978;2022-09-01T12:05:45;7.00;;;1.67;;
37131;SDS011;23035;50.032;21.978;2022-09-01T12:11:00;10.00;;;6.30;;
37131;SDS011;23035;50.032;21.978;2022-09-01T12:16:07;8.07;;;2.40;;
37131;SDS011;23035;50.032;21.978;2022-09-01T12:21:20;7.05;;;4.38;;
37131;SDS011;23035;50.032;21.978;2022-09-01T12:26:27;3.45;;;1.90;;
37131;SDS011;23035;50.032;21.978;2022-09-01T12:31:32;2.40;;;1.33;;
37131;SDS011;23035;50.032;21.978;2022-09-01T12:36:37;4.30;;;1.73;;
37131;SDS011;23035;50.032;21.978;2022-09-01T12:41:43;1.55;;;1.40;;
37131;SDS011;23035;50.032;21.978;2022-09-01T12:46:49;1.40;;;1.30;;
37131;SDS011;23035;50.032;21.978;2022-09-01T12:52:09;2.13;;;1.50;;
37131;SDS011;23035;50.032;21.978;2022-09-01T12:57:26;2.72;;;2.50;;
37131;SDS011;23035;50.032;21.978;2022-09-01T13:02:33;5.32;;;1.38;;
37131;SDS011;23035;50.032;21.978;2022-09-01T13:07:38;3.30;;;1.80;;
37131;SDS011;23035;50.032;21.978;2022-09-01T13:12:44;1.77;;;1.37;;
37131;SDS011;23035;50.032;21.978;2022-09-01T13:17:48;2.95;;;1.17;;
37131;SDS011;23035;50.032;21.978;2022-09-01T13:22:51;2.13;;;1.40;;
37131;SDS011;23035;50.032;21.978;2022-09-01T13:27:57;3.57;;;1.40;;
37131;SDS011;23035;50.032;21.978;2022-09-01T13:33:07;2.47;;;1.33;;
37131;SDS011;23035;50.032;21.978;2022-09-01T13:38:21;3.83;;;1.48;;
37131;SDS011;23035;50.032;21.978;2022-09-01T13:43:27;2.22;;;1.48;;
37131;SDS011;23035;50.032;21.978;2022-09-01T13:48:32;2.40;;;1.40;;
37131;SDS011;23035;50.032;21.978;2022-09-01T13:53:56;4.20;;;1.40;;
37131;SDS011;23035;50.032;21.978;2022-09-01T13:59:01;1.67;;;1.50;;
37131;SDS011;23035;50.032;21.978;2022-09-01T14:04:08;7.13;;;1.60;;
37131;SDS011;23035;50.032;21.978;2022-09-01T14:09:13;2.80;;;1.50;;
37131;SDS011;23035;50.032;21.978;2022-09-01T14:14:20;2.15;;;1.52;;
37131;SDS011;23035;50.032;21.978;2022-09-01T14:19:24;2.17;;;1.48;;
37131;SDS011;23035;50.032;21.978;2022-09-01T14:24:40;4.60;;;1.63;;
37131;SDS011;23035;50.032;21.978;2022-09-01T14:29:48;5.25;;;1.77;;
37131;SDS011;23035;50.032;21.978;2022-09-01T14:34:57;4.35;;;3.10;;
37131;SDS011;23035;50.032;21.978;2022-09-01T14:40:02;5.70;;;1.40;;
37131;SDS011;23035;50.032;21.978;2022-09-01T14:45:09;8.77;;;5.03;;
37131;SDS011;23035;50.032;21.978;2022-09-01T14:50:15;1.75;;;1.60;;
37131;SDS011;23035;50.032;21.978;2022-09-01T14:55:25;2.20;;;1.25;;
37131;SDS011;23035;50.032;21.978;2022-09-01T15:00:32;1.33;;;1.23;;
37131;SDS011;23035;50.032;21.978;2022-09-01T15:05:38;1.60;;;1.50;;
37131;SDS011;23035;50.032;21.978;2022-09-01T15:10:42;6.87;;;1.50;;
37131;SDS011;23035;50.032;21.978;2022-09-01T15:15:47;4.70;;;3.37;;
37131;SDS011;23035;50.032;21.978;2022-09-01T15:20:51;3.95;;;1.98;;
37131;SDS011;23035;50.032;21.978;2022-09-01T15:25:56;6.90;;;1.58;;
37131;SDS011;23035;50.032;21.978;2022-09-01T15:31:01;6.85;;;2.42;;
37131;SDS011;23035;50.032;21.978;2022-09-01T15:36:06;1.75;;;1.65;;
37131;SDS011;23035;50.032;21.978;2022-09-01T15:41:14;1.57;;;1.43;;
37131;SDS011;23035;50.032;21.978;2022-09-01T15:46:20;5.38;;;1.70;;
37131;SDS011;23035;50.032;21.978;2022-09-01T15:51:33;1.55;;;1.45;;
37131;SDS011;23035;50.032;21.978;2022-09-01T15:56:38;5.78;;;1.90;;
37131;SDS011;23035;50.032;21.978;2022-09-01T16:01:43;1.85;;;1.65;;
37131;SDS011;23035;50.032;21.978;2022-09-01T16:06:49;4.68;;;2.13;;
37131;SDS011;23035;50.032;21.978;2022-09-01T16:11:53;4.68;;;2.40;;
37131;SDS011;23035;50.032;21.978;2022-09-01T16:17:01;5.20;;;2.22;;
37131;SDS011;23035;50.032;21.978;2022-09-01T16:22:12;6.15;;;2.10;;
37131;SDS011;23035;50.032;21.978;2022-09-01T16:27:25;5.32;;;2.10;;
37131;SDS011;23035;50.032;21.978;2022-09-01T16:32:35;5.38;;;1.92;;
37131;SDS011;23035;50.032;21.978;2022-09-01T16:37:43;3.65;;;2.25;;
37131;SDS011;23035;50.032;21.978;2022-09-01T16:42:55;4.60;;;2.53;;
37131;SDS011;23035;50.032;21.978;2022-09-01T16:48:12;4.50;;;2.75;;
37131;SDS011;23035;50.032;21.978;2022-09-01T16:53:25;6.43;;;2.38;;
37131;SDS011;23035;50.032;21.978;2022-09-01T16:58:40;4.13;;;2.60;;
37131;SDS011;23035;50.032;21.978;2022-09-01T17:03:54;5.38;;;2.53;;
37131;SDS011;23035;50.032;21.978;2022-09-01T17:09:08;7.65;;;2.58;;
37131;SDS011;23035;50.032;21.978;2022-09-01T17:14:15;4.15;;;2.60;;
37131;SDS011;23035;50.032;21.978;2022-09-01T17:19:41;6.00;;;3.00;;
37131;SDS011;23035;50.032;21.978;2022-09-01T17:24:57;7.40;;;3.35;;
37131;SDS011;23035;50.032;21.978;2022-09-01T17:30:10;10.18;;;5.43;;
37131;SDS011;23035;50.032;21.978;2022-09-01T17:35:20;6.38;;;3.53;;
37131;SDS011;23035;50.032;21.978;2022-09-01T17:40:36;7.47;;;4.32;;
37131;SDS011;23035;50.032;21.978;2022-09-01T17:45:50;10.55;;;6.18;;
37131;SDS011;23035;50.032;21.978;2022-09-01T17:51:02;9.88;;;3.22;;
37131;SDS011;23035;50.032;21.978;2022-09-01T17:56:13;9.90;;;5.05;;
37131;SDS011;23035;50.032;21.978;2022-09-01T18:01:36;9.80;;;4.18;;
37131;SDS011;23035;50.032;21.978;2022-09-01T18:06:54;9.13;;;5.15;;
37131;SDS011;23035;50.032;21.978;2022-09-01T18:12:06;6.57;;;3.42;;
37131;SDS011;23035;50.032;21.978;2022-09-01T18:17:13;7.70;;;3.92;;
37131;SDS011;23035;50.032;21.978;2022-09-01T18:22:26;7.70;;;4.18;;
37131;SDS011;23035;50.032;21.978;2022-09-01T18:27:37;20.38;;;5.60;;
37131;SDS011;23035;50.032;21.978;2022-09-01T18:32:44;12.27;;;5.32;;
37131;SDS011;23035;50.032;21.978;2022-09-01T18:38:02;11.70;;;5.65;;
37131;SDS011;23035;50.032;21.978;2022-09-01T18:48:30;21.65;;;10.10;;
37131;SDS011;23035;50.032;21.978;2022-09-01T18:53:54;11.02;;;5.78;;
37131;SDS011;23035;50.032;21.978;2022-09-01T18:59:03;13.32;;;7.90;;
37131;SDS011;23035;50.032;21.978;2022-09-01T19:04:16;18.05;;;6.90;;
37131;SDS011;23035;50.032;21.978;2022-09-01T19:09:30;12.10;;;6.22;;
37131;SDS011;23035;50.032;21.978;2022-09-01T19:14:38;12.85;;;6.82;;
37131;SDS011;23035;50.032;21.978;2022-09-01T19:19:50;14.35;;;6.97;;
37131;SDS011;23035;50.032;21.978;2022-09-01T19:25:00;14.23;;;7.65;;
37131;SDS011;23035;50.032;21.978;2022-09-01T19:30:21;12.80;;;6.47;;
37131;SDS011;23035;50.032;21.978;2022-09-01T19:35:26;12.38;;;6.28;;
37131;SDS011;23035;50.032;21.978;2022-09-01T19:40:36;9.80;;;4.95;;
37131;SDS011;23035;50.032;21.978;2022-09-01T19:45:43;9.27;;;5.00;;
37131;SDS011;23035;50.032;21.978;2022-09-01T19:56:05;19.45;;;9.73;;
37131;SDS011;23035;50.032;21.978;2022-09-01T20:01:15;15.27;;;7.90;;
37131;SDS011;23035;50.032;21.978;2022-09-01T20:06:27;14.15;;;5.88;;
37131;SDS011;23035;50.032;21.978;2022-09-01T20:11:37;9.52;;;6.07;;
37131;SDS011;23035;50.032;21.978;2022-09-01T20:16:49;14.65;;;6.90;;
37131;SDS011;23035;50.032;21.978;2022-09-01T20:21:57;10.75;;;5.93;;
37131;SDS011;23035;50.032;21.978;2022-09-01T20:27:24;8.63;;;4.22;;
37131;SDS011;23035;50.032;21.978;2022-09-01T20:32:35;10.80;;;5.07;;
37131;SDS011;23035;50.032;21.978;2022-09-01T20:37:46;9.82;;;4.50;;
37131;SDS011;23035;50.032;21.978;2022-09-01T20:43:08;7.90;;;3.65;;
37131;SDS011;23035;50.032;21.978;2022-09-01T20:48:21;6.20;;;3.97;;
37131;SDS011;23035;50.032;21.978;2022-09-01T20:53:31;9.23;;;4.18;;
37131;SDS011;23035;50.032;21.978;2022-09-01T20:58:49;13.73;;;4.40;;
37131;SDS011;23035;50.032;21.978;2022-09-01T21:04:03;10.15;;;4.55;;
37131;SDS011;23035;50.032;21.978;2022-09-01T21:09:17;10.65;;;3.78;;
37131;SDS011;23035;50.032;21.978;2022-09-01T21:14:28;5.57;;;3.58;;
37131;SDS011;23035;50.032;21.978;2022-09-01T21:19:45;9.70;;;4.53;;
37131;SDS011;23035;50.032;21.978;2022-09-01T21:24:55;10.13;;;4.32;;
37131;SDS011;23035;50.032;21.978;2022-09-01T21:30:00;9.68;;;4.60;;
37131;SDS011;23035;50.032;21.978;2022-09-01T21:35:07;10.13;;;4.13;;
37131;SDS011;23035;50.032;21.978;2022-09-01T21:40:15;8.73;;;3.85;;
37131;SDS011;23035;50.032;21.978;2022-09-01T21:45:20;6.45;;;3.30;;
37131;SDS011;23035;50.032;21.978;2022-09-01T21:50:24;7.63;;;3.85;;
37131;SDS011;23035;50.032;21.978;2022-09-01T21:55:30;12.30;;;4.22;;
37131;SDS011;23035;50.032;21.978;2022-09-01T22:00:35;9.32;;;4.40;;
37131;SDS011;23035;50.032;21.978;2022-09-01T22:05:41;9.43;;;3.83;;
37131;SDS011;23035;50.032;21.978;2022-09-01T22:10:47;8.35;;;3.83;;
37131;SDS011;23035;50.032;21.978;2022-09-01T22:15:53;5.75;;;3.40;;
37131;SDS011;23035;50.032;21.978;2022-09-01T22:21:00;5.75;;;3.67;;
37131;SDS011;23035;50.032;21.978;2022-09-01T22:26:06;8.38;;;3.40;;
37131;SDS011;23035;50.032;21.978;2022-09-01T22:31:17;8.13;;;3.45;;
37131;SDS011;23035;50.032;21.978;2022-09-01T22:36:24;8.13;;;3.35;;
37131;SDS011;23035;50.032;21.978;2022-09-01T22:46:35;10.02;;;3.50;;
37131;SDS011;23035;50.032;21.978;2022-09-01T22:51:40;7.63;;;3.35;;
37131;SDS011;23035;50.032;21.978;2022-09-01T22:56:46;8.73;;;3.47;;
37131;SDS011;23035;50.032;21.978;2022-09-01T23:06:54;9.48;;;3.65;;
37131;SDS011;23035;50.032;21.978;2022-09-01T23:12:00;9.32;;;3.33;;
37131;SDS011;23035;50.032;21.978;2022-09-01T23:17:04;5.50;;;3.10;;
37131;SDS011;23035;50.032;21.978;2022-09-01T23:22:08;8.75;;;2.95;;
37131;SDS011;23035;50.032;21.978;2022-09-01T23:27:13;5.45;;;3.15;;
37131;SDS011;23035;50.032;21.978;2022-09-01T23:32:17;4.90;;;2.97;;
37131;SDS011;23035;50.032;21.978;2022-09-01T23:37:21;8.48;;;3.15;;
37131;SDS011;23035;50.032;21.978;2022-09-01T23:42:26;5.15;;;2.97;;
37131;SDS011;23035;50.032;21.978;2022-09-01T23:47:29;6.37;;;3.30;;
37131;SDS011;23035;50.032;21.978;2022-09-01T23:52:33;8.02;;;3.25;;
37131;SDS011;23035;50.032;21.978;2022-09-01T23:57:38;4.90;;;3.20;;
